Time;durP1;ratioP1;P1;durP2;ratioP2;P2;SDS_P1;SDS_P2;PMS_P1;PMS_P2;Temp;Humidity;BMP_temperature;BMP_pressure;BME280_temperature;BME280_humidity;BME280_pressure;Samples;Min_cycle;Max_cycle;Signal;HPM_P1;HPM_P2
2022/12/22 07:21:56;;;;;;;;;4.25;1.50;;;;;12.84;100.00;100839.13;5341037;23;49742;-75
2022/12/22 07:24:24;;;;;;;;;1.75;1.25;;;;;12.65;100.00;100842.38;4932621;28;49869;-81
2022/12/22 07:26:50;;;;;;;;;5.75;3.00;;;;;12.40;100.00;100759.50;4924551;28;49834;-80
2022/12/22 07:29:18;;;;;;;;;3.00;1.00;;;;;11.74;100.00;100681.34;4928627;28;49779;-83
2022/12/22 07:31:43;;;;;;;;;3.75;3.00;;;;;12.66;100.00;100815.16;4914484;28;50807;-81
2022/12/22 07:34:09;;;;;;;;;1.50;1.50;;;;;12.18;100.00;100716.22;4923515;28;50498;-79
2022/12/22 07:36:36;;;;;;;;;6.00;3.00;;;;;12.56;100.00;100823.81;4924184;28;50181;-83
2022/12/22 07:39:02;;;;;;;;;7.00;2.75;;;;;11.92;100.00;100686.03;4929602;28;49817;-84
2022/12/22 07:44:12;;;;;;;;;3.50;2.50;;;;;12.27;100.00;100742.69;4924380;28;49751;-82
2022/12/22 07:46:38;;;;;;;;;3.75;2.00;;;;;12.14;100.00;100729.31;4917154;28;51582;-80
2022/12/22 07:52:18;;;;;;;;;2.75;2.75;;;;;12.98;100.00;100863.00;4927593;28;49854;-85
2022/12/22 07:54:44;;;;;;;;;4.75;2.50;;;;;13.00;100.00;100873.53;4922521;28;49948;-76
2022/12/22 07:57:09;;;;;;;;;6.00;5.75;;;;;11.55;100.00;100606.59;4929947;28;50861;-79
2022/12/22 08:02:00;;;;;;;;;6.00;5.00;;;;;12.94;100.00;100848.03;4960396;23;71922;-78
2022/12/22 08:04:25;;;;;;;;;10.50;5.00;;;;;11.56;100.00;100644.28;4957843;28;50552;-78
2022/12/22 08:06:51;;;;;;;;;6.50;3.25;;;;;11.86;100.00;100705.22;4962892;28;49865;-77
2022/12/22 08:09:20;;;;;;;;;11.25;6.50;;;;;11.69;100.00;100665.53;4946150;28;49964;-78
2022/12/22 08:11:45;;;;;;;;;9.75;5.25;;;;;12.53;100.00;100802.69;4930923;28;49982;-78
2022/12/22 08:14:11;;;;;;;;;12.00;10.00;;;;;12.96;100.00;100901.63;4942976;28;50432;-78
2022/12/22 08:16:36;;;;;;;;;8.25;5.25;;;;;12.97;100.00;100906.03;4929538;28;52871;-78
2022/12/22 08:19:01;;;;;;;;;8.50;4.00;;;;;11.66;100.00;100669.84;4945141;28;50006;-73
2022/12/22 08:21:35;;;;;;;;;13.00;9.00;;;;;11.65;100.00;100691.75;4933308;28;49873;-80
2022/12/22 08:24:00;;;;;;;;;6.75;5.75;;;;;11.71;100.00;100662.91;4951042;28;49832;-77
2022/12/22 08:26:54;;;;;;;;;8.75;5.25;;;;;11.92;100.00;100707.09;4937162;28;51002;-77
2022/12/22 08:29:31;;;;;;;;;11.75;7.75;;;;;12.95;100.00;100904.25;4938327;28;49957;-81
2022/12/22 08:31:57;;;;;;;;;11.25;7.75;;;;;11.86;100.00;100699.97;4950470;28;49904;-78
2022/12/22 08:34:23;;;;;;;;;9.75;6.75;;;;;12.99;100.00;100919.22;4946214;28;49921;-81
2022/12/22 08:36:53;;;;;;;;;7.25;4.00;;;;;12.80;100.00;100861.00;4946985;28;50777;-69
2022/12/22 08:39:20;;;;;;;;;13.00;6.75;;;;;12.07;100.00;100720.47;4944620;28;49824;-73
2022/12/22 08:41:49;;;;;;;;;16.25;11.00;;;;;12.08;100.00;100721.34;4959985;28;49880;-72
2022/12/22 08:44:16;;;;;;;;;10.75;6.00;;;;;12.52;100.00;100807.06;4944355;28;49577;-65
2022/12/22 08:46:41;;;;;;;;;8.00;5.00;;;;;13.14;100.00;100877.25;4937411;28;49778;-67
2022/12/22 08:49:07;;;;;;;;;10.00;4.50;;;;;13.16;100.00;100880.78;4938284;28;49780;-66
2022/12/22 08:51:32;;;;;;;;;15.50;9.50;;;;;13.04;100.00;100852.53;4940184;28;50165;-67
2022/12/22 08:53:57;;;;;;;;;10.00;6.00;;;;;13.10;100.00;100857.84;4947060;28;49833;-67
2022/12/22 08:56:23;;;;;;;;;15.00;8.25;;;;;12.34;100.00;100733.09;4934735;28;49911;-68
2022/12/22 08:58:48;;;;;;;;;14.00;10.25;;;;;12.42;100.00;100754.25;4944341;28;49972;-66
2022/12/22 09:01:21;;;;;;;;;15.25;7.50;;;;;13.26;100.00;100868.63;4952208;28;49722;-67
2022/12/22 09:03:54;;;;;;;;;15.00;13.00;;;;;13.25;100.00;100869.50;4943414;28;49889;-67
2022/12/22 09:06:21;;;;;;;;;11.75;11.75;;;;;13.16;100.00;100850.03;4942196;28;50128;-70
2022/12/22 09:08:47;;;;;;;;;9.00;6.25;;;;;12.99;100.00;100824.34;4964009;28;49903;-67
2022/12/22 09:11:13;;;;;;;;;11.00;9.25;;;;;12.93;100.00;100811.97;4950924;28;49933;-68
2022/12/22 09:13:38;;;;;;;;;11.75;9.25;;;;;12.71;100.00;100800.28;4946271;28;49733;-64
2022/12/22 09:16:08;;;;;;;;;9.75;6.50;;;;;11.82;100.00;100627.16;4933426;28;49749;-64
2022/12/22 09:18:34;;;;;;;;;10.50;5.25;;;;;12.60;100.00;100746.59;4936838;28;50011;-65
2022/12/22 09:21:00;;;;;;;;;12.25;10.00;;;;;13.20;100.00;100858.00;4936266;28;49577;-67
2022/12/22 09:23:26;;;;;;;;;7.25;6.75;;;;;13.26;100.00;100872.16;4940777;28;49882;-64
2022/12/22 09:25:52;;;;;;;;;10.50;6.75;;;;;13.06;100.00;100837.63;4944846;28;52471;-65
2022/12/22 09:28:17;;;;;;;;;10.50;8.00;;;;;13.24;100.00;100899.38;4946391;28;49924;-65
2022/12/22 09:30:49;;;;;;;;;13.25;5.25;;;;;12.95;100.00;100819.91;4933812;28;49674;-67
2022/12/22 09:33:15;;;;;;;;;11.25;7.50;;;;;13.24;100.00;100870.38;4937613;28;49764;-69
2022/12/22 09:35:40;;;;;;;;;12.00;11.00;;;;;13.28;100.00;100882.72;4931059;28;51719;-70
2022/12/22 09:38:06;;;;;;;;;15.50;9.75;;;;;12.97;100.00;100818.19;4940845;28;49804;-64
2022/12/22 09:40:32;;;;;;;;;12.75;11.00;;;;;13.18;100.00;100844.78;4938126;28;49819;-64
2022/12/22 09:42:58;;;;;;;;;6.00;6.00;;;;;13.44;100.00;100880.28;4947288;28;50004;-64
2022/12/22 09:45:23;;;;;;;;;11.75;6.00;;;;;13.49;100.00;100890.84;4932801;28;49928;-68
2022/12/22 09:47:52;;;;;;;;;14.75;7.25;;;;;13.19;100.00;100833.41;4937042;28;49849;-63
2022/12/22 09:50:22;;;;;;;;;11.25;9.75;;;;;13.61;100.00;100906.84;4952151;28;49873;-70
2022/12/22 09:53:00;;;;;;;;;11.75;11.75;;;;;12.78;100.00;100754.72;4951368;28;49780;-70
2022/12/22 09:55:25;;;;;;;;;11.00;9.75;;;;;13.64;100.00;100901.59;4945056;28;50758;-69
2022/12/22 09:57:53;;;;;;;;;12.25;10.75;;;;;13.69;100.00;100913.06;4947286;28;50050;-70
2022/12/22 10:00:21;;;;;;;;;16.25;10.25;;;;;13.23;100.00;100813.25;4944730;28;49945;-75
2022/12/22 10:02:58;;;;;;;;;14.00;9.00;;;;;13.85;100.00;100897.38;4950722;28;49864;-72
2022/12/22 10:05:39;;;;;;;;;8.00;6.00;;;;;13.87;100.00;100890.34;4949319;28;50067;-64
2022/12/22 10:08:11;;;;;;;;;13.00;9.00;;;;;13.88;100.00;100885.09;4943359;28;49612;-69
2022/12/22 10:10:36;;;;;;;;;16.25;10.75;;;;;13.13;100.00;100773.56;4942857;28;49840;-75
2022/12/22 10:13:03;;;;;;;;;11.75;7.25;;;;;12.66;100.00;100658.88;4933874;28;50018;-70
2022/12/22 10:15:38;;;;;;;;;14.50;11.00;;;;;13.83;100.00;100841.09;4931211;28;49688;-70
2022/12/22 10:18:13;;;;;;;;;12.00;9.25;;;;;14.08;100.00;100914.31;4940313;28;49948;-68
2022/12/22 10:20:41;;;;;;;;;14.50;8.50;;;;;14.02;100.00;100867.66;4938164;28;49914;-81
2022/12/22 10:23:28;;;;;;;;;14.50;9.00;;;;;13.99;100.00;100835.03;4936677;28;50279;-78
2022/12/22 10:25:56;;;;;;;;;11.00;8.25;;;;;14.26;100.00;100872.22;4945183;28;50748;-71
2022/12/22 10:28:26;;;;;;;;;13.25;10.50;;;;;13.11;100.00;100700.59;4942757;28;50081;-74
2022/12/22 10:31:12;;;;;;;;;13.25;7.75;;;;;13.76;100.00;100792.63;4949482;28;49890;-73
2022/12/22 10:33:38;;;;;;;;;12.75;9.50;;;;;13.95;100.00;100833.25;4942305;28;49711;-71
2022/12/22 10:36:05;;;;;;;;;15.00;12.75;;;;;14.35;100.00;100866.13;4933449;28;51170;-69
2022/12/22 10:38:35;;;;;;;;;14.50;8.75;;;;;14.45;100.00;100870.63;4949216;28;49938;-72
2022/12/22 10:41:07;;;;;;;;;12.00;10.25;;;;;14.35;100.00;100846.75;4940648;28;49695;-72
2022/12/22 10:43:36;;;;;;;;;14.50;9.50;;;;;13.71;100.00;100758.31;4950485;28;49776;-70
2022/12/22 10:46:03;;;;;;;;;11.00;7.75;;;;;14.35;100.00;100834.44;4941821;28;51617;-71
2022/12/22 10:48:32;;;;;;;;;14.50;10.25;;;;;14.50;100.00;100849.53;4951332;28;49993;-71
2022/12/22 10:50:59;;;;;;;;;19.00;13.25;;;;;14.46;100.00;100853.91;4952606;28;50215;-70
2022/12/22 10:53:47;;;;;;;;;7.00;5.75;;;;;13.21;100.00;100633.06;4949480;28;49960;-71
2022/12/22 10:56:20;;;;;;;;;12.25;7.00;;;;;14.41;100.00;100834.47;4930993;28;50165;-68
2022/12/22 10:59:03;;;;;;;;;14.75;7.25;;;;;14.30;100.00;100815.94;4939064;28;49632;-69
2022/12/22 11:01:33;;;;;;;;;12.50;12.00;;;;;14.35;100.00;100826.50;4934720;28;49974;-67
2022/12/22 11:04:16;;;;;;;;;22.00;12.25;;;;;14.66;100.00;100874.28;4934118;28;50143;-64
2022/12/22 11:06:42;;;;;;;;;15.25;10.75;;;;;14.69;100.00;100877.84;4931238;28;51073;-71
2022/12/22 11:09:10;;;;;;;;;15.25;9.50;;;;;14.35;100.00;100796.56;4937221;28;49986;-65
2022/12/22 11:11:47;;;;;;;;;7.75;5.25;;;;;14.29;100.00;100805.38;4946551;28;50003;-65
2022/12/22 11:14:19;;;;;;;;;11.50;6.25;;;;;14.49;100.00;100842.50;4937011;28;49945;-65
2022/12/22 11:16:56;;;;;;;;;4.50;4.50;;;;;14.81;100.00;100864.69;4929688;28;50260;-66
2022/12/22 11:19:27;;;;;;;;;10.75;8.25;;;;;14.87;100.00;100866.50;4944444;28;49872;-65
2022/12/22 11:22:10;;;;;;;;;16.00;10.25;;;;;14.88;100.00;100861.19;4943282;28;49925;-66
2022/12/22 11:25:06;;;;;;;;;11.25;7.25;;;;;13.58;100.00;100634.22;4936079;28;50032;-66
2022/12/22 11:28:00;;;;;;;;;17.00;10.00;;;;;14.91;100.00;100851.50;4954948;28;49839;-64
2022/12/22 11:30:49;;;;;;;;;14.00;10.75;;;;;14.94;100.00;100854.16;4951602;28;49903;-65
2022/12/22 11:33:40;;;;;;;;;10.50;7.75;;;;;14.96;100.00;100853.31;4938096;28;49822;-67
2022/12/22 11:36:21;;;;;;;;;20.25;14.25;;;;;14.53;100.00;100808.16;4949636;28;49770;-66
2022/12/22 11:38:55;;;;;;;;;15.25;9.00;;;;;14.70;100.00;100808.25;4961781;28;49670;-64
2022/12/22 11:41:40;;;;;;;;;9.00;8.75;;;;;14.96;100.00;100855.03;4962193;28;49600;-63
2022/12/22 11:44:37;;;;;;;;;15.00;12.25;;;;;14.96;100.00;100849.75;4954709;28;49544;-64
2022/12/22 11:47:24;;;;;;;;;12.00;11.25;;;;;14.73;100.00;100810.03;4952713;28;49539;-68
2022/12/22 11:50:00;;;;;;;;;10.25;8.75;;;;;14.95;100.00;100846.22;4952801;28;51140;-67
2022/12/22 11:52:34;;;;;;;;;10.25;8.50;;;;;14.86;100.00;100832.97;4950136;28;49710;-65
2022/12/22 11:55:08;;;;;;;;;8.25;8.00;;;;;14.94;100.00;100831.25;4961087;28;49442;-68
2022/12/22 11:57:49;;;;;;;;;8.75;7.25;;;;;14.96;100.00;100839.19;4970236;28;49821;-65
2022/12/22 12:00:23;;;;;;;;;13.00;8.50;;;;;15.00;100.00;100857.72;4960620;28;50120;-68
2022/12/22 12:03:17;;;;;;;;;14.75;10.00;;;;;14.83;100.00;100786.28;4957029;28;49631;-75
2022/12/22 12:05:48;;;;;;;;;11.50;8.00;;;;;15.08;100.00;100818.09;4951885;28;49409;-68
2022/12/22 12:08:40;;;;;;;;;6.50;6.00;;;;;15.05;100.00;100818.06;4949041;28;49842;-68
2022/12/22 12:11:27;;;;;;;;;9.50;7.50;;;;;15.06;100.00;100822.50;4952114;28;49888;-70
2022/12/22 12:14:05;;;;;;;;;9.75;8.75;;;;;15.07;100.00;100814.59;4943577;28;49908;-68
2022/12/22 12:16:37;;;;;;;;;11.00;8.25;;;;;15.10;100.00;100804.00;4938467;28;49790;-62
2022/12/22 12:19:21;;;;;;;;;12.00;10.25;;;;;15.14;100.00;100807.53;4953104;28;49854;-64
2022/12/22 12:22:03;;;;;;;;;10.75;9.00;;;;;14.27;100.00;100688.25;4965279;28;49789;-71
2022/12/22 12:24:41;;;;;;;;;11.50;5.50;;;;;13.99;100.00;100638.00;4960897;28;49770;-71
2022/12/22 12:27:37;;;;;;;;;12.50;6.75;;;;;15.08;100.00;100803.13;4953134;28;49325;-75
2022/12/22 12:30:05;;;;;;;;;9.25;6.25;;;;;14.53;100.00;100702.50;4964216;28;49612;-71
2022/12/22 12:32:39;;;;;;;;;10.50;8.75;;;;;14.86;100.00;100762.53;4942689;28;49678;-74
2022/12/22 12:35:30;;;;;;;;;16.00;12.25;;;;;15.03;100.00;100789.00;4962555;28;49608;-68
2022/12/22 12:38:14;;;;;;;;;9.75;9.50;;;;;14.94;100.00;100769.56;4959737;28;49422;-73
2022/12/22 12:40:50;;;;;;;;;11.75;7.75;;;;;14.99;100.00;100774.00;4968518;28;49676;-70
2022/12/22 12:43:16;;;;;;;;;10.75;7.75;;;;;14.60;100.00;100708.69;4958772;28;50630;-66
2022/12/22 12:45:45;;;;;;;;;10.00;8.00;;;;;14.59;100.00;100706.94;4952092;28;50027;-68
2022/12/22 12:48:19;;;;;;;;;9.75;7.50;;;;;14.94;100.00;100769.56;4956017;28;49699;-71
2022/12/22 12:50:52;;;;;;;;;14.25;11.00;;;;;14.93;100.00;100770.47;4948840;28;49710;-67
2022/12/22 12:53:19;;;;;;;;;24.00;16.00;;;;;14.80;100.00;100741.34;4951757;28;50017;-63
2022/12/22 12:55:45;;;;;;;;;6.00;4.00;;;;;14.87;100.00;100756.34;4952307;28;49489;-63
2022/12/22 12:58:31;;;;;;;;;14.00;11.00;;;;;14.83;100.00;100758.97;4960933;28;50043;-66
2022/12/22 13:00:56;;;;;;;;;17.75;9.50;;;;;13.66;100.00;100558.66;4966987;28;49599;-67
2022/12/22 13:03:27;;;;;;;;;15.25;10.50;;;;;14.79;100.00;100758.09;4972547;28;59265;-64
2022/12/22 13:05:54;;;;;;;;;13.75;10.50;;;;;14.78;100.00;100750.16;4948599;28;49438;-66
2022/12/22 13:08:19;;;;;;;;;11.00;9.75;;;;;14.75;100.00;100745.72;4953881;28;49404;-66
2022/12/22 13:11:08;;;;;;;;;13.25;8.50;;;;;14.72;100.00;100745.72;4950174;28;49731;-62
2022/12/22 13:13:38;;;;;;;;;8.50;8.50;;;;;14.69;100.00;100740.44;4956978;28;50484;-66
2022/12/22 13:16:03;;;;;;;;;9.00;6.00;;;;;14.63;100.00;100740.41;4933496;28;49877;-65
2022/12/22 13:18:31;;;;;;;;;14.00;11.75;;;;;14.67;100.00;100743.94;4933659;28;49777;-65
2022/12/22 13:20:58;;;;;;;;;11.00;8.75;;;;;14.57;100.00;100729.81;4934812;28;50070;-64
2022/12/22 13:23:29;;;;;;;;;10.50;10.25;;;;;14.20;100.00;100684.72;4948101;28;50049;-67
2022/12/22 13:26:01;;;;;;;;;11.00;8.75;;;;;14.57;100.00;100735.09;4934956;28;49959;-66
2022/12/22 13:28:28;;;;;;;;;13.00;8.75;;;;;14.34;100.00;100695.34;4933345;28;49969;-63
2022/12/22 13:31:05;;;;;;;;;8.50;7.00;;;;;14.54;100.00;100738.59;4933284;28;49859;-65
2022/12/22 13:33:37;;;;;;;;;8.50;5.75;;;;;14.16;100.00;100664.44;4945572;28;51681;-65
2022/12/22 13:36:07;;;;;;;;;10.00;10.00;;;;;14.51;100.00;100740.34;4959072;28;50130;-63
2022/12/22 13:38:35;;;;;;;;;13.50;9.75;;;;;14.48;100.00;100730.66;4969366;28;49500;-64
2022/12/22 13:41:15;;;;;;;;;9.75;6.25;;;;;14.46;100.00;100721.84;4967967;28;49733;-64
2022/12/22 13:43:43;;;;;;;;;14.75;9.00;;;;;14.40;100.00;100723.56;4964940;28;50370;-64
2022/12/22 13:46:09;;;;;;;;;8.00;7.75;;;;;14.43;100.00;100719.16;4957452;28;49962;-63
2022/12/22 13:48:47;;;;;;;;;15.50;7.50;;;;;14.40;100.00;100716.50;4945401;28;49830;-63
2022/12/22 13:51:20;;;;;;;;;20.50;10.25;;;;;14.21;100.00;100673.28;4942501;28;49596;-64
2022/12/22 13:53:53;;;;;;;;;12.00;8.00;;;;;13.84;100.00;100618.56;4934735;28;49862;-63
2022/12/22 13:56:22;;;;;;;;;12.00;9.50;;;;;14.27;100.00;100701.47;4950493;28;49318;-63
2022/12/22 13:58:56;;;;;;;;;11.50;7.25;;;;;13.96;100.00;100645.88;4943341;28;49730;-63
2022/12/22 14:01:22;;;;;;;;;9.25;5.50;;;;;14.15;100.00;100686.44;4943419;28;49815;-63
2022/12/22 14:04:01;;;;;;;;;13.00;8.25;;;;;14.16;100.00;100689.97;4950290;28;49866;-65
2022/12/22 14:06:35;;;;;;;;;8.00;6.25;;;;;14.11;100.00;100687.31;4956247;28;49370;-68
2022/12/22 14:09:20;;;;;;;;;16.25;10.25;;;;;14.12;100.00;100701.41;4960586;28;49280;-70
2022/12/22 14:11:58;;;;;;;;;7.00;7.00;;;;;14.12;100.00;100688.22;4956553;28;49776;-65
2022/12/22 14:14:41;;;;;;;;;12.00;7.50;;;;;14.06;100.00;100662.66;4951033;28;49871;-66
2022/12/22 14:17:21;;;;;;;;;13.50;7.75;;;;;14.01;100.00;100670.56;4956747;28;49938;-65
2022/12/22 14:19:54;;;;;;;;;7.50;5.00;;;;;13.97;100.00;100662.59;4949667;28;50029;-71
2022/12/22 14:22:31;;;;;;;;;9.00;5.00;;;;;13.71;100.00;100622.91;4951748;28;49737;-69
2022/12/22 14:25:08;;;;;;;;;10.50;6.25;;;;;13.96;100.00;100663.47;4950932;28;51057;-80
2022/12/22 14:27:37;;;;;;;;;8.25;6.00;;;;;13.89;100.00;100659.03;4947217;28;49964;-77
2022/12/22 14:30:06;;;;;;;;;7.00;5.00;;;;;13.83;100.00;100646.69;4932758;28;49882;-71
2022/12/22 14:32:35;;;;;;;;;11.25;6.75;;;;;13.67;100.00;100615.81;4937788;28;49666;-73
2022/12/22 14:35:01;;;;;;;;;9.25;6.75;;;;;13.27;100.00;100565.47;4948551;28;50385;-77
2022/12/22 14:37:26;;;;;;;;;5.50;4.50;;;;;12.67;100.00;100468.41;4948349;28;49249;-74
2022/12/22 14:39:55;;;;;;;;;7.00;7.00;;;;;13.89;100.00;100666.94;4963003;28;49525;-74
2022/12/22 14:42:21;;;;;;;;;8.50;5.75;;;;;13.90;100.00;100648.50;4948037;28;49762;-73
2022/12/22 14:44:47;;;;;;;;;10.00;6.00;;;;;13.43;100.00;100545.38;4947232;28;50366;-68
2022/12/22 14:47:22;;;;;;;;;5.00;4.00;;;;;12.79;100.00;100436.88;4947108;28;49627;-77
2022/12/22 14:49:57;;;;;;;;;10.50;6.00;;;;;13.88;100.00;100613.28;4963277;28;49634;-70
2022/12/22 14:52:44;;;;;;;;;6.25;5.25;;;;;13.86;100.00;100601.84;4947785;28;49321;-72
2022/12/22 14:55:31;;;;;;;;;5.50;4.00;;;;;12.88;100.00;100450.09;4961999;28;50387;-75
2022/12/22 14:58:03;;;;;;;;;5.25;5.25;;;;;12.37;100.00;100361.09;4965380;28;49482;-71
2022/12/22 15:00:35;;;;;;;;;5.75;4.25;;;;;13.81;100.00;100621.19;4966196;28;49396;-74
2022/12/22 15:03:04;;;;;;;;;11.00;7.50;;;;;13.50;100.00;100539.22;4965585;28;49747;-68
2022/12/22 15:05:34;;;;;;;;;9.25;6.00;;;;;13.54;100.00;100537.50;4966885;28;50959;-68
2022/12/22 15:08:00;;;;;;;;;10.50;6.75;;;;;13.80;100.00;100571.91;4965913;28;49430;-75
2022/12/22 15:10:32;;;;;;;;;11.50;7.00;;;;;13.43;100.00;100497.91;4965121;28;49565;-74
2022/12/22 15:13:03;;;;;;;;;6.75;5.50;;;;;13.60;100.00;100516.41;4965059;28;49425;-69
2022/12/22 15:15:30;;;;;;;;;5.00;4.25;;;;;13.52;100.00;100489.16;4964778;28;49815;-66
2022/12/22 15:17:56;;;;;;;;;4.00;4.00;;;;;13.03;100.00;100421.22;4965000;28;49578;-72
2022/12/22 15:20:24;;;;;;;;;6.00;4.25;;;;;13.79;100.00;100527.94;4957087;28;49607;-65
2022/12/22 15:22:50;;;;;;;;;6.25;5.25;;;;;13.88;100.00;100528.84;4933090;28;49971;-77
2022/12/22 15:25:21;;;;;;;;;8.00;6.75;;;;;13.91;100.00;100528.88;4929993;28;50843;-72
2022/12/22 15:27:46;;;;;;;;;8.50;5.50;;;;;13.70;100.00;100507.66;4944307;28;49872;-70
2022/12/22 15:30:16;;;;;;;;;9.00;4.00;;;;;12.71;100.00;100330.59;4941654;28;49742;-66
2022/12/22 15:32:42;;;;;;;;;3.75;3.00;;;;;13.84;100.00;100516.53;4938789;28;50097;-76
2022/12/22 15:35:15;;;;;;;;;5.75;3.00;;;;;13.51;100.00;100458.34;4938807;28;50522;-69
2022/12/22 15:37:40;;;;;;;;;5.25;4.00;;;;;13.78;100.00;100505.06;4938250;28;49702;-74
2022/12/22 15:40:13;;;;;;;;;7.50;3.50;;;;;13.84;100.00;100503.34;4934426;28;50315;-70
2022/12/22 15:42:38;;;;;;;;;5.50;3.75;;;;;12.75;100.00;100321.84;4939171;28;49595;-67
2022/12/22 15:45:04;;;;;;;;;2.25;2.25;;;;;13.05;100.00;100348.31;4933172;28;55024;-73
2022/12/22 15:47:29;;;;;;;;;4.00;4.00;;;;;13.87;100.00;100486.63;4933326;28;50161;-73
2022/12/22 15:49:54;;;;;;;;;2.00;2.00;;;;;13.56;100.00;100428.50;4937653;28;50006;-67
2022/12/22 15:52:20;;;;;;;;;4.75;3.75;;;;;13.56;100.00;100441.69;4958304;28;49795;-70
2022/12/22 15:54:45;;;;;;;;;7.25;4.50;;;;;13.02;100.00;100339.50;4950207;28;50131;-74
2022/12/22 15:57:13;;;;;;;;;2.50;2.50;;;;;13.57;100.00;100413.56;4959116;28;50124;-73
2022/12/22 15:59:38;;;;;;;;;2.75;2.00;;;;;13.78;100.00;100436.47;4953450;28;50038;-76
2022/12/22 16:02:10;;;;;;;;;4.75;3.50;;;;;13.56;100.00;100422.34;4937837;28;50004;-75
2022/12/22 16:04:35;;;;;;;;;6.50;3.75;;;;;13.81;100.00;100447.06;4933328;28;51150;-72
2022/12/22 16:07:01;;;;;;;;;3.50;3.50;;;;;13.72;100.00;100440.00;4937058;28;49734;-68
2022/12/22 16:09:31;;;;;;;;;6.00;3.00;;;;;13.60;100.00;100405.66;4942185;28;50071;-70
2022/12/22 16:11:57;;;;;;;;;6.25;3.50;;;;;13.09;100.00;100314.94;4949929;28;49690;-68
2022/12/22 16:14:23;;;;;;;;;4.00;4.00;;;;;13.64;100.00;100407.44;4937932;28;49819;-68
2022/12/22 16:16:49;;;;;;;;;5.75;4.75;;;;;13.65;100.00;100393.38;4934972;28;50064;-70
2022/12/22 16:19:16;;;;;;;;;4.00;3.50;;;;;13.74;100.00;100402.19;4934661;28;49714;-72
2022/12/22 16:21:44;;;;;;;;;3.00;2.00;;;;;13.81;100.00;100423.31;4934310;28;49853;-72
2022/12/22 16:24:25;;;;;;;;;4.25;2.50;;;;;13.55;100.00;100362.56;4938116;28;49869;-70
2022/12/22 16:26:50;;;;;;;;;2.00;2.00;;;;;13.72;100.00;100403.94;4954143;28;50029;-69
2022/12/22 16:29:16;;;;;;;;;4.00;4.00;;;;;13.44;100.00;100349.38;4954751;28;49853;-69
2022/12/22 16:31:41;;;;;;;;;3.00;3.00;;;;;13.78;100.00;100410.97;4937384;28;49671;-74
2022/12/22 16:34:10;;;;;;;;;3.25;2.00;;;;;13.64;100.00;100378.41;4934332;28;55728;-68
2022/12/22 16:36:35;;;;;;;;;2.25;1.50;;;;;13.70;100.00;100402.16;4933934;28;50131;-68
2022/12/22 16:39:01;;;;;;;;;3.00;1.75;;;;;13.78;100.00;100418.00;4933754;28;49964;-75
2022/12/22 16:41:26;;;;;;;;;1.00;1.00;;;;;12.79;100.00;100271.81;4934563;28;49804;-72
2022/12/22 16:43:55;;;;;;;;;5.00;3.00;;;;;13.04;100.00;100312.31;4934322;28;49931;-72
2022/12/22 16:46:22;;;;;;;;;1.50;1.50;;;;;13.02;100.00;100313.16;4934644;28;49851;-72
2022/12/22 16:48:51;;;;;;;;;4.00;1.00;;;;;12.37;100.00;100163.69;4934473;28;50353;-71
2022/12/22 16:51:22;;;;;;;;;1.00;1.00;;;;;13.60;100.00;100380.16;4934212;28;49590;-67
2022/12/22 16:53:47;;;;;;;;;1.75;1.75;;;;;13.78;100.00;100389.00;4932740;28;50739;-70
2022/12/22 16:56:16;;;;;;;;;2.00;1.00;;;;;13.52;100.00;100350.28;4934088;28;49799;-75
2022/12/22 16:58:42;;;;;;;;;1.75;1.00;;;;;13.56;100.00;100338.84;4934118;28;49513;-68
2022/12/22 17:01:37;;;;;;;;;2.75;1.00;;;;;13.78;100.00;100370.53;4934154;28;49995;-67
2022/12/22 17:04:30;;;;;;;;;1.25;1.25;;;;;12.20;100.00;100096.06;4933576;28;50723;-69
2022/12/22 17:06:58;;;;;;;;;0.25;0.00;;;;;13.40;100.00;100314.19;4949030;28;49791;-72
2022/12/22 17:09:42;;;;;;;;;2.50;1.50;;;;;12.56;100.00;100189.22;4952825;28;49813;-69
2022/12/22 17:12:15;;;;;;;;;1.00;1.00;;;;;12.80;100.00;100217.38;4952626;28;49770;-65
2022/12/22 17:14:41;;;;;;;;;3.50;2.00;;;;;12.55;100.00;100171.66;4952065;28;50980;-68
2022/12/22 17:17:14;;;;;;;;;1.00;1.00;;;;;13.64;100.00;100328.31;4952307;28;49872;-69
2022/12/22 17:19:40;;;;;;;;;2.50;0.75;;;;;13.38;100.00;100292.22;4951915;28;49727;-64
2022/12/22 17:22:35;;;;;;;;;0.75;0.75;;;;;13.87;100.00;100373.16;4952624;28;49919;-65
2022/12/22 17:25:03;;;;;;;;;2.50;1.00;;;;;13.89;100.00;100369.66;4952119;28;49973;-67
2022/12/22 17:27:30;;;;;;;;;1.00;1.00;;;;;13.92;100.00;100379.34;4952517;28;49945;-66
2022/12/22 17:29:57;;;;;;;;;2.00;1.00;;;;;12.43;100.00;100132.09;4952337;28;49654;-71
2022/12/22 17:32:22;;;;;;;;;1.00;1.00;;;;;12.80;100.00;100183.13;4952387;28;49835;-67
2022/12/22 17:34:48;;;;;;;;;0.00;0.00;;;;;13.25;100.00;100269.34;4951568;28;49985;-72
2022/12/22 17:37:16;;;;;;;;;0.75;0.75;;;;;13.97;100.00;100372.31;4952226;28;49912;-72
2022/12/22 17:39:43;;;;;;;;;3.00;1.00;;;;;12.55;100.00;100151.47;4952313;28;49768;-72
2022/12/22 17:42:16;;;;;;;;;2.25;1.25;;;;;13.22;100.00;100256.19;4952357;28;49974;-71
2022/12/22 17:44:41;;;;;;;;;0.00;0.00;;;;;13.61;100.00;100301.94;4951875;28;49856;-65
2022/12/22 17:47:12;;;;;;;;;0.25;0.25;;;;;14.06;100.00;100374.94;4951900;28;50065;-72
2022/12/22 17:49:38;;;;;;;;;1.00;1.00;;;;;14.08;100.00;100398.69;4951630;28;49898;-65
2022/12/22 17:52:03;;;;;;;;;0.00;0.00;;;;;12.75;100.00;100148.91;4951807;28;49813;-65
2022/12/22 17:54:28;;;;;;;;;3.00;2.00;;;;;12.96;100.00;100184.06;4950103;28;51413;-65
2022/12/22 17:57:00;;;;;;;;;0.00;0.00;;;;;13.92;100.00;100345.94;4951773;28;50054;-70
2022/12/22 17:59:26;;;;;;;;;1.00;1.00;;;;;13.61;100.00;100279.06;4951855;28;49623;-64
2022/12/22 18:01:51;;;;;;;;;1.00;1.00;;;;;13.80;100.00;100322.19;4950304;28;50204;-65
2022/12/22 18:04:17;;;;;;;;;2.00;2.00;;;;;14.13;100.00;100362.63;4950648;28;50717;-70
2022/12/22 18:06:42;;;;;;;;;1.75;1.75;;;;;13.13;100.00;100190.22;4932766;28;49830;-74
2022/12/22 18:09:18;;;;;;;;;3.75;1.50;;;;;14.05;100.00;100354.72;4933270;28;49738;-65
2022/12/22 18:11:43;;;;;;;;;2.00;1.00;;;;;13.92;100.00;100334.50;4933412;28;49807;-64
2022/12/22 18:14:11;;;;;;;;;1.00;1.00;;;;;13.54;100.00;100261.47;4932707;28;49805;-66
2022/12/22 18:16:37;;;;;;;;;3.00;2.00;;;;;14.16;100.00;100355.59;4933029;28;49984;-65
2022/12/22 18:19:03;;;;;;;;;2.25;2.25;;;;;14.25;100.00;100374.06;4939475;28;51286;-70
2022/12/22 18:21:28;;;;;;;;;0.00;0.00;;;;;14.11;100.00;100352.09;4951641;28;49752;-72
2022/12/22 18:23:54;;;;;;;;;0.50;0.50;;;;;14.21;100.00;100361.75;4943193;28;49951;-75
2022/12/22 18:26:23;;;;;;;;;1.00;1.00;;;;;14.29;100.00;100375.84;4950884;28;49683;-67
2022/12/22 18:28:49;;;;;;;;;2.00;1.00;;;;;14.36;100.00;100376.69;4932409;28;49880;-72
2022/12/22 18:31:14;;;;;;;;;1.00;1.00;;;;;14.37;100.00;100373.16;4951688;28;49833;-71
2022/12/22 18:33:39;;;;;;;;;0.25;0.25;;;;;14.38;100.00;100368.78;4951306;28;51221;-73
2022/12/22 18:36:05;;;;;;;;;1.00;0.75;;;;;14.37;100.00;100367.88;4951146;28;50198;-68
2022/12/22 18:38:33;;;;;;;;;2.00;0.00;;;;;14.39;100.00;100370.56;4951501;28;49653;-75
2022/12/22 18:40:59;;;;;;;;;1.25;1.25;;;;;14.40;100.00;100385.53;4951449;28;49764;-68
2022/12/22 18:43:24;;;;;;;;;1.00;1.00;;;;;14.38;100.00;100368.78;4950952;28;50273;-65
2022/12/22 18:45:50;;;;;;;;;0.00;0.00;;;;;14.31;100.00;100360.00;4951151;28;49808;-66
2022/12/22 18:48:15;;;;;;;;;0.00;0.00;;;;;14.37;100.00;100362.59;4951169;28;51145;-75
2022/12/22 18:50:41;;;;;;;;;0.50;0.50;;;;;14.39;100.00;100370.56;4951062;28;50113;-72
2022/12/22 18:53:28;;;;;;;;;1.50;1.00;;;;;14.25;100.00;100362.63;4951095;28;50654;-65
2022/12/22 18:55:54;;;;;;;;;3.00;1.25;;;;;13.89;100.00;100298.41;4949587;28;50053;-66
2022/12/22 18:58:20;;;;;;;;;0.75;0.75;;;;;14.45;100.00;100383.78;4950915;28;49752;-64